Palhano, Brazil
Current Conditions -  °F | °C
As of 12:00 PM on Thursday 30 Oct 2014 (Local Time) from SBFZ Reporting Station
Scattered Clouds Scattered Clouds  
Wind Chill: 86°   Ceiling: Unl
Heat Index: 88°   Visibility: 6mi
Dew Point: 66°   Wind: 20mph
Humidity: 51%   Direction: 120°ESE
Pressure: 29.88"   Gusts: NA
Location:  4.73°S, 37.95°W
Report Text: SBFZ 301500Z 12017KT 9999 SCT025 30/19 Q1012
Loading
Personal Weather Stations






























Interactive Weather Map
Tropical Storm Tracking
New forecast layout! Learn more

10-Day Weather Forecast

Advertisements
Track Severe Weather on mobile